createdAt,value
2023-02-26T00:00:38.166Z,98370.34
2023-02-26T00:03:05.675Z,98359.88
2023-02-26T00:05:32.812Z,98365.97
2023-02-26T00:07:59.972Z,98370.63
2023-02-26T00:10:27.709Z,98353.22
2023-02-26T00:12:54.917Z,98362.03
2023-02-26T00:15:22.369Z,98357.22
2023-02-26T00:17:57.595Z,98350.00
2023-02-26T00:20:26.079Z,98380.78
2023-02-26T00:22:53.686Z,98383.22
2023-02-26T00:25:20.971Z,98378.66
2023-02-26T00:27:48.260Z,98355.50
2023-02-26T00:30:15.745Z,98343.41
2023-02-26T00:32:43.119Z,98320.97
2023-02-26T00:35:14.586Z,98321.19
2023-02-26T00:38:00.576Z,98336.00
2023-02-26T00:40:27.658Z,98342.81
2023-02-26T00:42:55.106Z,98341.47
2023-02-26T00:45:22.373Z,98341.16
2023-02-26T00:47:51.722Z,98331.66
2023-02-26T00:50:20.340Z,98329.06
2023-02-26T00:52:53.429Z,98325.53
2023-02-26T00:55:21.184Z,98335.16
2023-02-26T00:57:48.329Z,98337.81
2023-02-26T01:00:16.169Z,98352.28
2023-02-26T01:02:43.846Z,98349.06
2023-02-26T01:05:11.204Z,98354.13
2023-02-26T01:07:45.321Z,98346.03
2023-02-26T01:10:13.700Z,98348.88
2023-02-26T01:12:41.367Z,98349.06
2023-02-26T01:15:09.713Z,98365.72
2023-02-26T01:17:52.247Z,98380.66
2023-02-26T01:20:21.333Z,98385.34
2023-02-26T01:22:51.870Z,98381.53
2023-02-26T01:25:22.280Z,98373.50
2023-02-26T01:27:50.266Z,98374.38
2023-02-26T01:30:17.793Z,98361.94
2023-02-26T01:32:56.988Z,98355.97
2023-02-26T01:35:44.290Z,98356.03
2023-02-26T01:38:17.574Z,98348.66
2023-02-26T01:40:56.888Z,98335.78
2023-02-26T01:43:26.585Z,98335.78
2023-02-26T01:46:04.256Z,98336.28
2023-02-26T01:48:37.769Z,98325.06
2023-02-26T01:51:05.514Z,98336.56
2023-02-26T01:53:32.703Z,98343.28
2023-02-26T01:56:00.831Z,98345.56
2023-02-26T01:58:28.788Z,98375.03
2023-02-26T02:00:55.964Z,98388.66
2023-02-26T02:03:23.629Z,98389.69
2023-02-26T02:05:52.286Z,98392.19
2023-02-26T02:08:19.911Z,98396.41
2023-02-26T02:10:47.895Z,98383.91
2023-02-26T02:13:15.008Z,98375.91
2023-02-26T02:15:46.521Z,98372.94
2023-02-26T02:18:35.481Z,98362.22
2023-02-26T02:21:14.720Z,98361.50
2023-02-26T02:23:43.738Z,98374.62
2023-02-26T02:26:20.546Z,98384.41
2023-02-26T02:29:03.052Z,98380.75
2023-02-26T02:31:35.027Z,98380.16
2023-02-26T02:34:13.454Z,98389.72
2023-02-26T02:36:49.803Z,98394.41
2023-02-26T02:39:23.655Z,98411.53
2023-02-26T02:41:53.384Z,98415.50
2023-02-26T02:44:20.916Z,98401.66
2023-02-26T02:46:48.892Z,98400.06
2023-02-26T02:49:22.454Z,98405.41
2023-02-26T02:52:00.644Z,98417.09
2023-02-26T02:54:36.131Z,98428.19
2023-02-26T02:57:08.363Z,98430.87
2023-02-26T02:59:35.733Z,98430.75
2023-02-26T03:02:23.261Z,98417.66
2023-02-26T03:04:50.772Z,98437.94
2023-02-26T03:07:17.964Z,98447.59
2023-02-26T03:09:45.159Z,98439.59
2023-02-26T03:12:12.670Z,98438.87
2023-02-26T03:14:40.013Z,98431.00
2023-02-26T03:17:07.449Z,98410.03
2023-02-26T03:20:07.597Z,98414.09
2023-02-26T03:22:38.016Z,98421.28
2023-02-26T03:25:10.190Z,98427.59
2023-02-26T03:27:53.362Z,98434.88
2023-02-26T03:30:23.063Z,98443.47
2023-02-26T03:32:53.584Z,98439.47
2023-02-26T03:35:23.047Z,98443.09
2023-02-26T03:37:50.770Z,98449.09
2023-02-26T03:40:19.644Z,98451.03
2023-02-26T03:42:58.076Z,98442.19
2023-02-26T03:45:29.413Z,98456.66
2023-02-26T03:47:56.831Z,98460.44
2023-02-26T03:50:30.147Z,98466.91
2023-02-26T03:52:58.632Z,98471.94
2023-02-26T03:55:26.935Z,98475.28
2023-02-26T03:57:55.440Z,98482.03
2023-02-26T04:00:23.754Z,98470.34
2023-02-26T04:02:54.730Z,98445.28
2023-02-26T04:05:23.449Z,98439.09
2023-02-26T04:07:50.881Z,98439.88
2023-02-26T04:10:19.623Z,98439.50
2023-02-26T04:12:47.017Z,98444.03
2023-02-26T04:15:14.511Z,98448.91
2023-02-26T04:17:42.631Z,98443.47
2023-02-26T04:20:10.927Z,98466.47
2023-02-26T04:22:38.467Z,98469.50
2023-02-26T04:25:05.860Z,98471.69
2023-02-26T04:27:33.127Z,98503.44
2023-02-26T04:30:00.692Z,98522.25
2023-02-26T04:32:27.851Z,98521.09
2023-02-26T04:34:55.060Z,98506.75
2023-02-26T04:37:22.600Z,98504.19
2023-02-26T04:39:49.753Z,98514.19
2023-02-26T04:42:16.888Z,98519.31
2023-02-26T04:44:44.309Z,98531.59
2023-02-26T04:47:12.984Z,98543.97
2023-02-26T04:49:40.274Z,98532.31
2023-02-26T04:52:07.815Z,98533.03
2023-02-26T04:54:35.400Z,98524.41
2023-02-26T04:57:02.522Z,98510.72
2023-02-26T04:59:30.119Z,98526.34
2023-02-26T05:01:58.011Z,98529.44
2023-02-26T05:04:25.864Z,98526.47
2023-02-26T05:06:54.329Z,98516.34
2023-02-26T05:09:21.913Z,98510.72
2023-02-26T05:11:49.679Z,98517.97
2023-02-26T05:14:17.358Z,98512.91
2023-02-26T05:16:44.578Z,98504.19
2023-02-26T05:19:11.843Z,98510.62
2023-02-26T05:21:39.452Z,98513.72
2023-02-26T05:24:06.760Z,98515.75
2023-02-26T05:26:33.891Z,98525.75
2023-02-26T05:29:01.283Z,98541.31
2023-02-26T05:31:28.727Z,98548.78
2023-02-26T05:33:55.911Z,98561.72
2023-02-26T05:36:23.640Z,98569.03
2023-02-26T05:38:51.025Z,98553.03
2023-02-26T05:41:18.172Z,98550.03
2023-02-26T05:43:45.597Z,98558.00
2023-02-26T05:46:14.087Z,98570.81
2023-02-26T05:48:41.275Z,98576.22
2023-02-26T05:51:10.031Z,98595.16
2023-02-26T05:53:37.217Z,98598.94
2023-02-26T05:56:05.907Z,98594.81
2023-02-26T05:58:34.029Z,98589.38
2023-02-26T06:01:01.363Z,98581.63
2023-02-26T06:03:28.757Z,98593.41
2023-02-26T06:05:55.924Z,98590.94
2023-02-26T06:08:23.075Z,98595.34
2023-02-26T06:10:51.278Z,98589.31
2023-02-26T06:13:18.647Z,98591.13
2023-02-26T06:15:45.807Z,98609.88
2023-02-26T06:18:13.207Z,98596.34
2023-02-26T06:20:40.323Z,98603.91
2023-02-26T06:23:07.505Z,98615.28
2023-02-26T06:25:34.917Z,98625.41
2023-02-26T06:28:02.049Z,98620.59
2023-02-26T06:30:29.188Z,98624.91
2023-02-26T06:32:56.638Z,98625.69
2023-02-26T06:35:24.361Z,98613.09
2023-02-26T06:37:51.566Z,98622.47
2023-02-26T06:40:19.007Z,98615.91
2023-02-26T06:42:46.141Z,98638.47
2023-02-26T06:45:13.357Z,98663.53
2023-02-26T06:47:40.796Z,98660.19
2023-02-26T06:50:08.312Z,98661.84
2023-02-26T06:52:35.737Z,98668.34
2023-02-26T06:55:03.661Z,98661.13
2023-02-26T06:57:30.825Z,98656.62
2023-02-26T06:59:58.016Z,98663.34
2023-02-26T07:02:25.454Z,98661.19
2023-02-26T07:04:52.794Z,98652.59
2023-02-26T07:07:19.962Z,98653.38
2023-02-26T07:09:47.598Z,98661.00
2023-02-26T07:12:14.923Z,98669.09
2023-02-26T07:14:43.155Z,98669.06
2023-02-26T07:17:10.644Z,98639.13
2023-02-26T07:19:37.808Z,98634.69
2023-02-26T07:22:04.917Z,98638.00
2023-02-26T07:24:32.322Z,98646.63
2023-02-26T07:26:59.448Z,98650.66
2023-02-26T07:29:26.594Z,98656.00
2023-02-26T07:31:54.097Z,98638.34
2023-02-26T07:34:21.522Z,98639.19
2023-02-26T07:36:48.663Z,98632.72
2023-02-26T07:39:16.155Z,98658.87
2023-02-26T07:41:43.287Z,98675.84
2023-02-26T07:44:14.326Z,98660.13
2023-02-26T07:46:41.730Z,98660.41
2023-02-26T07:49:09.885Z,98662.66
2023-02-26T07:51:37.784Z,98660.63
2023-02-26T07:54:05.234Z,98667.16
2023-02-26T07:56:32.444Z,98664.31
2023-02-26T07:58:59.571Z,98657.97
2023-02-26T08:01:26.995Z,98668.50
2023-02-26T08:03:54.457Z,98665.22
2023-02-26T08:06:21.646Z,98662.06
2023-02-26T08:08:48.820Z,98670.38
2023-02-26T08:11:16.262Z,98671.00
2023-02-26T08:13:43.400Z,98656.84
2023-02-26T08:16:10.612Z,98659.53
2023-02-26T08:18:38.086Z,98669.13
2023-02-26T08:21:05.420Z,98678.25
2023-02-26T08:23:32.699Z,98679.34
2023-02-26T08:26:07.951Z,98675.31
2023-02-26T08:28:35.082Z,98683.28
2023-02-26T08:31:02.734Z,98673.78
2023-02-26T08:33:29.964Z,98667.03
2023-02-26T08:35:58.982Z,98667.94
2023-02-26T08:38:26.802Z,98684.28
2023-02-26T08:40:53.987Z,98681.22
2023-02-26T08:43:21.388Z,98688.16
2023-02-26T08:45:49.663Z,98681.38
2023-02-26T08:48:16.942Z,98690.66
2023-02-26T08:50:44.347Z,98699.13
2023-02-26T08:53:12.859Z,98704.00
2023-02-26T08:55:40.220Z,98705.53
2023-02-26T08:58:08.176Z,98703.41
2023-02-26T09:00:35.891Z,98718.91
2023-02-26T09:03:03.690Z,98716.03
2023-02-26T09:05:31.276Z,98716.47
2023-02-26T09:07:58.726Z,98714.63
2023-02-26T09:10:25.903Z,98721.28
2023-02-26T09:12:53.071Z,98713.81
2023-02-26T09:15:20.577Z,98713.53
2023-02-26T09:17:48.147Z,98725.31
2023-02-26T09:20:15.464Z,98724.34
2023-02-26T09:22:42.891Z,98730.91
2023-02-26T09:25:10.359Z,98730.59
2023-02-26T09:27:37.519Z,98732.56
2023-02-26T09:30:05.513Z,98734.13
2023-02-26T09:32:32.894Z,98731.00
2023-02-26T09:35:00.125Z,98738.34
2023-02-26T09:37:27.573Z,98739.69
2023-02-26T09:39:55.086Z,98734.09
2023-02-26T09:42:28.017Z,98736.84
2023-02-26T09:45:00.095Z,98749.00
2023-02-26T09:47:28.586Z,98740.09
2023-02-26T09:49:58.969Z,98738.41
2023-02-26T09:52:27.996Z,98735.91
2023-02-26T09:54:59.374Z,98736.88
2023-02-26T09:57:30.554Z,98727.78
2023-02-26T09:59:58.246Z,98730.97
2023-02-26T10:02:37.724Z,98732.19
2023-02-26T10:05:17.866Z,98741.94
2023-02-26T10:07:51.234Z,98738.59
2023-02-26T10:10:28.175Z,98747.72
2023-02-26T10:12:55.408Z,98759.25
2023-02-26T10:15:24.534Z,98763.63
2023-02-26T10:18:11.905Z,98783.50
2023-02-26T10:20:55.755Z,98783.59
2023-02-26T10:23:32.525Z,98782.19
2023-02-26T10:26:05.487Z,98789.81
2023-02-26T10:28:38.942Z,98799.72
2023-02-26T10:31:15.173Z,98798.59
2023-02-26T10:33:54.954Z,98802.22
2023-02-26T10:36:24.354Z,98803.47
2023-02-26T10:38:52.721Z,98809.12
2023-02-26T10:41:25.199Z,98809.31
2023-02-26T10:43:56.972Z,98811.31
2023-02-26T10:46:30.087Z,98811.63
2023-02-26T10:49:16.261Z,98814.88
2023-02-26T10:51:43.497Z,98808.94
2023-02-26T10:54:19.887Z,98819.03
2023-02-26T10:56:47.106Z,98816.75
2023-02-26T10:59:16.645Z,98816.69
2023-02-26T11:01:44.153Z,98819.97
2023-02-26T11:04:31.539Z,98821.94
2023-02-26T11:07:03.107Z,98820.06
2023-02-26T11:09:41.272Z,98829.31
2023-02-26T11:12:11.838Z,98821.19
2023-02-26T11:14:39.014Z,98820.75
2023-02-26T11:17:28.051Z,98824.50
2023-02-26T11:19:57.458Z,98819.31
2023-02-26T11:22:25.898Z,98831.44
2023-02-26T11:24:53.174Z,98836.09
2023-02-26T11:27:22.232Z,98835.00
2023-02-26T11:29:56.858Z,98835.91
2023-02-26T11:32:29.500Z,98840.50
2023-02-26T11:34:56.670Z,98847.06
2023-02-26T11:37:25.187Z,98839.94
2023-02-26T11:39:55.576Z,98847.47
2023-02-26T11:42:22.790Z,98847.28
2023-02-26T11:44:50.383Z,98844.41
2023-02-26T11:47:25.004Z,98845.13
2023-02-26T11:49:56.169Z,98846.59
2023-02-26T11:52:28.451Z,98844.44
2023-02-26T11:54:59.790Z,98836.44
2023-02-26T11:57:29.112Z,98842.09
2023-02-26T11:59:58.050Z,98848.22
2023-02-26T12:02:27.886Z,98851.91
2023-02-26T12:04:56.311Z,98850.91
2023-02-26T12:07:23.565Z,98852.06
2023-02-26T12:09:50.833Z,98853.34
2023-02-26T12:12:27.753Z,98867.03
2023-02-26T12:15:14.610Z,98854.91
2023-02-26T12:17:42.117Z,98876.41
2023-02-26T12:20:15.285Z,98870.56
2023-02-26T12:22:49.927Z,98869.16
2023-02-26T12:25:23.380Z,98871.44
2023-02-26T12:28:06.050Z,98875.31
2023-02-26T12:30:51.861Z,98878.97
2023-02-26T12:33:39.542Z,98882.81
2023-02-26T12:36:09.863Z,98878.84
2023-02-26T12:38:49.544Z,98883.19
2023-02-26T12:41:22.810Z,98880.72
2023-02-26T12:43:55.742Z,98880.28
2023-02-26T12:46:23.296Z,98887.31
2023-02-26T12:49:06.606Z,98889.53
2023-02-26T12:51:36.908Z,98894.09
2023-02-26T12:54:13.577Z,98904.06
2023-02-26T12:56:59.906Z,98912.19
2023-02-26T13:00:06.281Z,98906.00
2023-02-26T13:02:33.441Z,98908.91
2023-02-26T13:05:17.145Z,98903.91
2023-02-26T13:08:03.003Z,98905.34
2023-02-26T13:10:30.365Z,98906.81
2023-02-26T13:13:06.317Z,98921.91
2023-02-26T13:15:40.069Z,98926.97
2023-02-26T13:18:11.273Z,98925.81
2023-02-26T13:20:40.053Z,98932.19
2023-02-26T13:23:14.376Z,98930.16
2023-02-26T13:25:48.827Z,98927.94
2023-02-26T13:28:19.257Z,98932.00
2023-02-26T13:30:49.072Z,98931.19
2023-02-26T13:33:18.067Z,98932.88
2023-02-26T13:35:45.624Z,98935.19
2023-02-26T13:38:28.771Z,98936.81
2023-02-26T13:41:14.788Z,98928.84
2023-02-26T13:44:05.429Z,98934.53
2023-02-26T13:46:51.238Z,98936.34
2023-02-26T13:49:21.577Z,98933.44
2023-02-26T13:51:49.587Z,98933.09
2023-02-26T13:54:17.423Z,98932.72
2023-02-26T13:56:48.211Z,98947.22
2023-02-26T13:59:19.578Z,98946.84
2023-02-26T14:01:48.991Z,98949.22
2023-02-26T14:04:19.654Z,98955.13
2023-02-26T14:06:48.722Z,98964.78
2023-02-26T14:09:21.928Z,98962.09
2023-02-26T14:11:55.150Z,98971.78
2023-02-26T14:14:22.461Z,98971.16
2023-02-26T14:17:15.661Z,98980.13
2023-02-26T14:20:08.962Z,98980.66
2023-02-26T14:22:41.725Z,98980.03
2023-02-26T14:25:18.689Z,98982.72
2023-02-26T14:27:47.259Z,98986.53
2023-02-26T14:30:32.937Z,98983.94
2023-02-26T14:33:00.382Z,98987.69
2023-02-26T14:35:40.889Z,98992.59
2023-02-26T14:38:14.146Z,98992.97
2023-02-26T14:40:46.464Z,99001.75
2023-02-26T14:43:20.011Z,99000.94
2023-02-26T14:45:47.486Z,99004.34
2023-02-26T14:48:16.496Z,99007.50
2023-02-26T14:50:48.192Z,99014.31
2023-02-26T14:53:37.367Z,99018.78
2023-02-26T14:56:09.637Z,99027.47
2023-02-26T14:58:41.467Z,99022.75
2023-02-26T15:01:27.489Z,99031.47
2023-02-26T15:04:13.514Z,99031.38
2023-02-26T15:06:59.839Z,99034.53
2023-02-26T15:09:40.907Z,99040.09
2023-02-26T15:12:11.153Z,99052.59
2023-02-26T15:14:38.675Z,99050.19
2023-02-26T15:17:09.747Z,99058.78
2023-02-26T15:19:55.747Z,99067.75
2023-02-26T15:22:23.318Z,99064.47
2023-02-26T15:24:50.651Z,99065.19
2023-02-26T15:27:18.342Z,99073.34
2023-02-26T15:29:45.901Z,99079.22
2023-02-26T15:32:15.087Z,99082.44
2023-02-26T15:34:45.413Z,99083.06
2023-02-26T15:37:20.087Z,99086.09
2023-02-26T15:39:50.999Z,99082.56
2023-02-26T15:42:21.829Z,99089.38
2023-02-26T15:44:56.769Z,99086.06
2023-02-26T15:47:25.115Z,99088.53
2023-02-26T15:49:53.986Z,99089.44
2023-02-26T15:52:22.172Z,99096.41
2023-02-26T15:54:50.851Z,99094.31
2023-02-26T15:57:18.103Z,99099.34
2023-02-26T15:59:46.297Z,99101.50
2023-02-26T16:02:19.160Z,99112.38
2023-02-26T16:04:46.609Z,99119.06
2023-02-26T16:07:13.922Z,99116.78
2023-02-26T16:09:42.725Z,99117.56
2023-02-26T16:12:17.542Z,99126.06
2023-02-26T16:14:47.483Z,99132.03
2023-02-26T16:17:17.201Z,99137.91
2023-02-26T16:19:45.129Z,99138.63
2023-02-26T16:22:23.862Z,99144.31
2023-02-26T16:24:53.472Z,99146.09
2023-02-26T16:27:20.606Z,99148.37
2023-02-26T16:29:50.007Z,99147.91
2023-02-26T16:32:18.167Z,99149.44
2023-02-26T16:34:52.774Z,99153.91
2023-02-26T16:37:27.776Z,99152.06
2023-02-26T16:40:04.987Z,99169.13
2023-02-26T16:42:41.915Z,99171.19
2023-02-26T16:45:20.142Z,99171.25
2023-02-26T16:47:48.968Z,99173.38
2023-02-26T16:50:20.610Z,99170.25
2023-02-26T16:52:48.994Z,99178.28
2023-02-26T16:55:18.446Z,99171.94
2023-02-26T16:57:46.196Z,99178.03
2023-02-26T17:00:20.065Z,99185.34
2023-02-26T17:02:48.685Z,99185.41
2023-02-26T17:05:16.507Z,99190.94
2023-02-26T17:07:48.323Z,99187.88
2023-02-26T17:10:45.478Z,99197.16
2023-02-26T17:13:17.050Z,99198.59
2023-02-26T17:15:45.336Z,99202.97
2023-02-26T17:18:13.191Z,99203.34
2023-02-26T17:20:40.549Z,99207.53
2023-02-26T17:23:09.354Z,99212.25
2023-02-26T17:25:38.039Z,99215.19
2023-02-26T17:28:05.344Z,99209.72
2023-02-26T17:30:33.743Z,99214.25
2023-02-26T17:33:01.708Z,99210.53
2023-02-26T17:35:29.629Z,99215.25
2023-02-26T17:37:57.459Z,99217.97
2023-02-26T17:40:26.356Z,99214.72
2023-02-26T17:42:53.841Z,99208.44
2023-02-26T17:45:21.568Z,99217.06
2023-02-26T17:47:50.072Z,99217.94
2023-02-26T17:50:22.702Z,99216.47
2023-02-26T17:52:50.183Z,99216.28
2023-02-26T17:55:17.333Z,99217.06
2023-02-26T17:57:44.499Z,99219.06
2023-02-26T18:00:14.919Z,99215.56
2023-02-26T18:02:42.717Z,99216.28
2023-02-26T18:05:10.529Z,99215.28
2023-02-26T18:07:38.064Z,99218.44
2023-02-26T18:10:05.948Z,99218.31
2023-02-26T18:12:33.424Z,99221.66
2023-02-26T18:15:00.874Z,99224.66
2023-02-26T18:17:31.117Z,99223.87
2023-02-26T18:19:58.599Z,99223.94
2023-02-26T18:22:27.545Z,99219.94
2023-02-26T18:24:55.032Z,99217.00
2023-02-26T18:27:23.242Z,99224.06
2023-02-26T18:29:50.953Z,99221.91
2023-02-26T18:32:19.710Z,99229.75
2023-02-26T18:34:47.436Z,99226.75
2023-02-26T18:37:15.540Z,99226.88
2023-02-26T18:39:43.020Z,99232.50
2023-02-26T18:42:14.560Z,99238.09
2023-02-26T18:44:41.734Z,99235.22
2023-02-26T18:47:09.092Z,99244.09
2023-02-26T18:49:36.643Z,99237.38
2023-02-26T18:52:03.985Z,99239.00
2023-02-26T18:54:31.556Z,99241.75
2023-02-26T18:56:59.054Z,99247.03
2023-02-26T18:59:26.217Z,99252.03
2023-02-26T19:01:53.468Z,99253.44
2023-02-26T19:04:21.057Z,99246.25
2023-02-26T19:06:51.564Z,99252.09
2023-02-26T19:09:18.851Z,99250.78
2023-02-26T19:11:46.393Z,99252.16
2023-02-26T19:14:13.772Z,99256.13
2023-02-26T19:16:43.711Z,99256.88
2023-02-26T19:19:12.602Z,99258.22
2023-02-26T19:21:41.082Z,99269.94
2023-02-26T19:24:09.056Z,99260.28
2023-02-26T19:26:36.804Z,99268.63
2023-02-26T19:29:05.876Z,99261.81
2023-02-26T19:31:33.640Z,99268.09
2023-02-26T19:34:01.159Z,99262.34
2023-02-26T19:36:33.462Z,99269.34
2023-02-26T19:39:01.773Z,99278.28
2023-02-26T19:41:29.177Z,99284.25
2023-02-26T19:43:56.753Z,99288.50
2023-02-26T19:46:24.589Z,99291.41
2023-02-26T19:48:51.832Z,99291.47
2023-02-26T19:51:19.206Z,99297.41
2023-02-26T19:53:46.875Z,99305.03
2023-02-26T19:56:14.114Z,99303.12
2023-02-26T19:58:41.842Z,99305.47
2023-02-26T20:01:09.554Z,99311.66
2023-02-26T20:03:37.014Z,99310.22
2023-02-26T20:06:04.599Z,99315.69
2023-02-26T20:08:32.235Z,99319.00
2023-02-26T20:10:59.727Z,99322.44
2023-02-26T20:13:30.347Z,99324.78
2023-02-26T20:16:00.991Z,99330.69
2023-02-26T20:18:29.829Z,99332.13
2023-02-26T20:20:57.965Z,99324.75
2023-02-26T20:23:25.568Z,99339.72
2023-02-26T20:25:56.679Z,99348.72
2023-02-26T20:28:24.353Z,99349.00
2023-02-26T20:30:52.055Z,99351.75
2023-02-26T20:33:21.055Z,99348.97
2023-02-26T20:35:48.952Z,99352.00
2023-02-26T20:38:17.560Z,99358.25
2023-02-26T20:40:45.616Z,99364.97
2023-02-26T20:43:12.907Z,99361.22
2023-02-26T20:45:40.560Z,99365.38
2023-02-26T20:48:08.376Z,99374.00
2023-02-26T20:50:36.284Z,99376.28
2023-02-26T20:53:04.183Z,99378.50
2023-02-26T20:55:31.597Z,99385.47
2023-02-26T20:57:58.711Z,99388.69
2023-02-26T21:00:25.993Z,99391.59
2023-02-26T21:02:53.679Z,99392.69
2023-02-26T21:05:21.208Z,99399.16
2023-02-26T21:07:48.519Z,99400.84
2023-02-26T21:10:16.449Z,99396.66
2023-02-26T21:12:43.926Z,99409.88
2023-02-26T21:15:11.453Z,99406.37
2023-02-26T21:17:39.416Z,99421.19
2023-02-26T21:20:07.139Z,99409.56
2023-02-26T21:22:35.618Z,99420.47
2023-02-26T21:25:03.732Z,99420.31
2023-02-26T21:27:30.909Z,99418.69
2023-02-26T21:29:58.409Z,99421.63
2023-02-26T21:32:26.625Z,99417.47
2023-02-26T21:34:53.882Z,99414.75
2023-02-26T21:37:21.034Z,99411.31
2023-02-26T21:39:48.470Z,99414.66
2023-02-26T21:42:15.664Z,99426.03
2023-02-26T21:44:42.882Z,99424.81
2023-02-26T21:47:10.527Z,99432.56
2023-02-26T21:49:37.786Z,99431.41
2023-02-26T21:52:05.653Z,99431.13
2023-02-26T21:54:33.438Z,99431.53
2023-02-26T21:57:00.653Z,99434.03
2023-02-26T21:59:27.900Z,99444.16
2023-02-26T22:01:55.568Z,99431.47
2023-02-26T22:04:23.234Z,99433.09
2023-02-26T22:06:50.389Z,99426.50
2023-02-26T22:09:19.172Z,99433.22
2023-02-26T22:11:47.206Z,99433.44
2023-02-26T22:14:15.387Z,99431.63
2023-02-26T22:16:42.567Z,99439.72
2023-02-26T22:19:09.998Z,99441.69
2023-02-26T22:21:37.356Z,99444.63
2023-02-26T22:24:05.299Z,99440.50
2023-02-26T22:26:32.698Z,99444.94
2023-02-26T22:29:00.776Z,99451.56
2023-02-26T22:31:28.616Z,99453.41
2023-02-26T22:33:57.366Z,99447.53
2023-02-26T22:36:24.817Z,99446.50
2023-02-26T22:38:52.016Z,99456.09
2023-02-26T22:41:19.461Z,99456.75
2023-02-26T22:43:46.569Z,99452.25
2023-02-26T22:46:13.796Z,99449.41
2023-02-26T22:48:41.245Z,99457.75
2023-02-26T22:51:08.537Z,99459.87
2023-02-26T22:53:35.680Z,99461.38
2023-02-26T22:56:03.136Z,99464.91
2023-02-26T22:58:30.280Z,99463.78
2023-02-26T23:01:04.314Z,99458.78
2023-02-26T23:03:31.912Z,99457.75
2023-02-26T23:05:59.952Z,99471.03
2023-02-26T23:08:27.163Z,99467.31
2023-02-26T23:10:58.303Z,99465.44
2023-02-26T23:13:25.882Z,99478.13
2023-02-26T23:15:53.151Z,99485.13
2023-02-26T23:18:20.684Z,99490.19
2023-02-26T23:20:48.103Z,99489.19
2023-02-26T23:23:15.607Z,99501.94
2023-02-26T23:25:43.748Z,99502.56
2023-02-26T23:28:11.123Z,99502.09
2023-02-26T23:30:38.348Z,99508.00
2023-02-26T23:33:07.250Z,99505.50
2023-02-26T23:35:34.665Z,99508.28
2023-02-26T23:38:01.874Z,99518.66
2023-02-26T23:40:29.558Z,99510.97
2023-02-26T23:42:56.677Z,99506.63
2023-02-26T23:45:23.980Z,99506.63
2023-02-26T23:47:51.407Z,99509.84
2023-02-26T23:50:18.551Z,99512.87
2023-02-26T23:52:45.825Z,99511.41
2023-02-26T23:55:13.275Z,99516.84
2023-02-26T23:57:40.508Z,99522.97
